Time;durP1;ratioP1;P1;durP2;ratioP2;P2;SDS_P1;SDS_P2;PMS_P1;PMS_P2;Temp;Humidity;BMP_temperature;BMP_pressure;BME280_temperature;BME280_humidity;BME280_pressure;Samples;Min_cycle;Max_cycle;Signal;HPM_P1;HPM_P2
2021/12/26 00:02:06;;;;;;;29.50;12.98;;;;;;;-2.27;100.00;98525.06;4950717;28;20062;-60
2021/12/26 00:04:32;;;;;;;22.45;12.82;;;;;;;-2.23;100.00;98525.50;4955206;28;20138;-60
2021/12/26 00:06:58;;;;;;;26.70;13.88;;;;;;;-2.30;100.00;98520.13;4955490;28;20497;-60
2021/12/26 00:09:23;;;;;;;21.20;12.60;;;;;;;-2.31;100.00;98522.94;4953290;28;20042;-61
2021/12/26 00:11:49;;;;;;;20.23;11.90;;;;;;;-2.28;100.00;98515.53;4952027;28;20684;-61
2021/12/26 00:14:14;;;;;;;25.35;13.75;;;;;;;-2.28;100.00;98517.34;4953287;28;20470;-61
2021/12/26 00:16:42;;;;;;;20.35;12.30;;;;;;;-2.25;100.00;98520.41;4955753;28;20043;-65
2021/12/26 00:19:07;;;;;;;28.08;13.82;;;;;;;-2.26;100.00;98518.00;4953139;28;20050;-60
2021/12/26 00:21:32;;;;;;;25.67;13.02;;;;;;;-2.22;100.00;98521.88;4948624;28;20486;-61
2021/12/26 00:23:59;;;;;;;20.35;10.77;;;;;;;-2.26;100.00;98508.28;4948561;28;20042;-60
2021/12/26 00:26:24;;;;;;;23.38;12.52;;;;;;;-2.28;100.00;98514.72;4947899;28;20043;-60
2021/12/26 00:28:49;;;;;;;18.55;11.23;;;;;;;-2.36;100.00;98510.34;4956560;28;20150;-60
2021/12/26 00:31:16;;;;;;;20.17;11.90;;;;;;;-2.40;100.00;98504.66;4948742;28;20027;-61
2021/12/26 00:33:42;;;;;;;25.48;12.90;;;;;;;-2.30;100.00;98490.44;4950998;28;20035;-60
2021/12/26 00:36:07;;;;;;;21.25;12.20;;;;;;;-2.30;100.00;98488.63;4956413;28;20046;-60
2021/12/26 00:38:33;;;;;;;53.25;19.00;;;;;;;-2.27;100.00;98487.47;4957494;28;20027;-60
2021/12/26 00:40:59;;;;;;;23.00;11.88;;;;;;;-2.36;100.00;98493.78;4953951;28;20047;-60
2021/12/26 00:43:26;;;;;;;26.48;12.15;;;;;;;-2.33;100.00;98480.31;4952208;28;20032;-60
2021/12/26 00:45:51;;;;;;;19.80;11.27;;;;;;;-2.33;100.00;98482.94;4956910;28;20101;-61
2021/12/26 00:48:17;;;;;;;21.05;11.80;;;;;;;-2.27;100.00;98479.59;4950691;28;20039;-60
2021/12/26 00:50:43;;;;;;;23.40;11.88;;;;;;;-2.31;100.00;98488.84;4953836;28;20591;-60
2021/12/26 00:53:08;;;;;;;19.65;10.68;;;;;;;-2.34;100.00;98490.00;4951262;28;20065;-60
2021/12/26 00:55:34;;;;;;;26.75;13.65;;;;;;;-2.28;100.00;98485.84;4948951;28;20303;-61
2021/12/26 00:58:00;;;;;;;22.42;10.90;;;;;;;-2.32;100.00;98485.41;4948615;28;20037;-61
2021/12/26 01:00:30;;;;;;;25.88;13.82;;;;;;;-2.29;100.00;98478.97;4958284;28;20165;-60
2021/12/26 01:02:57;;;;;;;25.25;13.95;;;;;;;-2.30;100.00;98486.00;4952150;28;20034;-61
2021/12/26 01:05:26;;;;;;;19.95;10.52;;;;;;;-2.36;100.00;98489.34;4951033;28;20063;-60
2021/12/26 01:10:20;;;;;;;23.17;13.23;;;;;;;-2.32;100.00;98485.41;4953034;28;20461;-60
2021/12/26 01:12:46;;;;;;;28.45;13.07;;;;;;;-2.25;100.00;98490.72;4951904;28;20202;-60
2021/12/26 01:15:12;;;;;;;24.50;13.00;;;;;;;-2.25;100.00;98495.97;4946627;28;20031;-60
2021/12/26 01:17:39;;;;;;;23.83;12.98;;;;;;;-2.31;100.00;98497.50;4950857;28;20038;-61
2021/12/26 01:20:08;;;;;;;24.55;12.48;;;;;;;-2.34;100.00;98494.44;4947832;28;20043;-60
2021/12/26 01:22:33;;;;;;;19.02;10.95;;;;;;;-2.40;100.00;98499.41;4948585;28;20023;-59
2021/12/26 01:24:59;;;;;;;22.40;11.77;;;;;;;-2.43;100.00;98497.13;4952404;28;20162;-59
2021/12/26 01:27:25;;;;;;;27.00;13.35;;;;;;;-2.32;100.00;98492.44;4948400;28;20043;-60
2021/12/26 01:29:51;;;;;;;24.38;11.77;;;;;;;-2.36;100.00;98493.78;4950730;28;20125;-60
2021/12/26 01:32:17;;;;;;;24.15;12.60;;;;;;;-2.34;100.00;98497.06;4950127;28;20695;-60
2021/12/26 01:34:43;;;;;;;22.63;11.52;;;;;;;-2.34;100.00;98489.19;4949923;28;20027;-60
2021/12/26 01:37:09;;;;;;;27.02;13.10;;;;;;;-2.31;100.00;98494.88;4951420;28;20146;-59
2021/12/26 01:39:34;;;;;;;24.65;12.98;;;;;;;-2.34;100.00;98500.50;4950022;28;20031;-59
2021/12/26 01:42:02;;;;;;;25.65;12.52;;;;;;;-2.34;100.00;98492.63;4952965;28;20047;-60
2021/12/26 01:44:31;;;;;;;22.80;11.57;;;;;;;-2.30;100.00;98493.06;4958907;28;20872;-60
2021/12/26 01:46:57;;;;;;;23.58;12.35;;;;;;;-2.32;100.00;98495.91;4949672;28;20047;-60
2021/12/26 01:49:24;;;;;;;21.88;12.55;;;;;;;-2.25;100.00;98495.97;4945818;28;20038;-60
2021/12/26 01:51:51;;;;;;;25.05;14.13;;;;;;;-2.24;100.00;98503.69;4956922;28;20062;-59
2021/12/26 01:54:28;;;;;;;25.50;12.30;;;;;;;-2.22;100.00;98495.63;4948630;28;20035;-59
2021/12/26 01:56:53;;;;;;;27.10;12.30;;;;;;;-2.30;100.00;98503.56;4945758;28;20039;-59
2021/12/26 01:59:19;;;;;;;25.83;12.75;;;;;;;-2.27;100.00;98500.59;4951025;28;20082;-59
2021/12/26 02:01:44;;;;;;;25.98;14.05;;;;;;;-2.29;100.00;98506.03;4950403;28;20394;-59
2021/12/26 02:04:10;;;;;;;25.67;12.70;;;;;;;-2.33;100.00;98512.63;4949110;28;20509;-60
2021/12/26 02:06:35;;;;;;;22.52;12.05;;;;;;;-2.33;100.00;98503.94;4947790;28;20535;-61
2021/12/26 02:09:01;;;;;;;23.38;12.45;;;;;;;-2.31;100.00;98508.00;4949558;28;20042;-61
2021/12/26 02:11:26;;;;;;;25.08;12.73;;;;;;;-2.34;100.00;98513.63;4954535;28;20039;-60
2021/12/26 02:13:51;;;;;;;24.80;11.27;;;;;;;-2.36;100.00;98501.66;4951445;28;20026;-61
2021/12/26 02:16:17;;;;;;;22.42;12.25;;;;;;;-2.37;100.00;98498.25;4950140;28;20450;-61
2021/12/26 02:18:42;;;;;;;27.33;13.88;;;;;;;-2.21;100.00;98513.03;4956012;28;20561;-63
2021/12/26 02:29:16;;;;;;;24.67;12.40;;;;;;;-2.40;100.00;98495.94;4954715;28;20398;-61
2021/12/26 02:31:41;;;;;;;34.78;14.98;;;;;;;-2.45;100.00;98493.84;4949646;28;20043;-61
2021/12/26 02:34:06;;;;;;;23.25;12.77;;;;;;;-2.25;100.00;98490.72;4948443;28;20043;-60
2021/12/26 02:36:32;;;;;;;31.55;13.73;;;;;;;-2.39;100.00;98482.66;4945340;28;20067;-61
2021/12/26 02:38:59;;;;;;;27.55;12.85;;;;;;;-2.41;100.00;98491.69;4945476;28;20109;-60
2021/12/26 02:41:24;;;;;;;22.95;12.60;;;;;;;-2.43;100.00;98484.00;4946070;28;21239;-60
2021/12/26 02:43:49;;;;;;;25.83;12.90;;;;;;;-2.47;100.00;98477.50;4954107;28;20473;-60
2021/12/26 02:46:15;;;;;;;24.63;13.07;;;;;;;-2.47;100.00;98474.88;4954905;28;20039;-60
2021/12/26 02:48:40;;;;;;;24.85;13.68;;;;;;;-2.49;100.00;98479.47;4952486;28;20308;-60
2021/12/26 02:51:06;;;;;;;24.67;14.57;;;;;;;-2.54;100.00;98481.81;4951165;28;20040;-60
2021/12/26 02:53:31;;;;;;;24.98;12.63;;;;;;;-2.47;100.00;98482.72;4955487;28;20046;-60
2021/12/26 02:55:58;;;;;;;30.65;14.48;;;;;;;-2.45;100.00;98479.91;4946286;28;20070;-60
2021/12/26 02:58:23;;;;;;;22.42;11.48;;;;;;;-2.42;100.00;98466.44;4955268;28;20474;-60
2021/12/26 03:00:51;;;;;;;26.60;13.52;;;;;;;-2.53;100.00;98472.94;4954497;28;20043;-60
2021/12/26 03:03:17;;;;;;;25.88;13.25;;;;;;;-2.49;100.00;98479.47;4948163;28;20027;-60
2021/12/26 03:05:44;;;;;;;23.15;12.18;;;;;;;-2.49;100.00;98478.66;4956040;28;20379;-60
2021/12/26 03:08:11;;;;;;;25.90;11.85;;;;;;;-2.49;100.00;98483.91;4953615;28;20073;-60
2021/12/26 03:10:37;;;;;;;24.63;13.25;;;;;;;-2.52;100.00;98466.72;4956557;28;20206;-60
2021/12/26 03:13:05;;;;;;;29.13;14.88;;;;;;;-2.49;100.00;98468.97;4950425;28;20429;-60
2021/12/26 03:15:31;;;;;;;35.80;14.35;;;;;;;-2.45;100.00;98472.03;4955053;28;20081;-60
2021/12/26 03:17:57;;;;;;;25.75;13.00;;;;;;;-2.46;100.00;98479.09;4958105;28;20078;-60
2021/12/26 03:20:24;;;;;;;24.73;12.77;;;;;;;-2.45;100.00;98466.78;4966869;28;20153;-60
2021/12/26 03:22:50;;;;;;;33.15;14.45;;;;;;;-2.50;100.00;98472.56;4952181;28;20033;-60
2021/12/26 03:25:20;;;;;;;32.25;14.23;;;;;;;-2.48;100.00;98465.34;4949200;28;20738;-60
2021/12/26 03:27:46;;;;;;;27.13;13.90;;;;;;;-2.49;100.00;98466.34;4951430;28;20109;-60
2021/12/26 03:30:13;;;;;;;31.58;14.32;;;;;;;-2.47;100.00;98472.25;4945478;28;20035;-60
2021/12/26 03:32:38;;;;;;;29.73;14.40;;;;;;;-2.45;100.00;98459.72;4954367;28;20545;-60
2021/12/26 03:35:04;;;;;;;26.95;13.73;;;;;;;-2.44;100.00;98466.63;4944230;28;20584;-60
2021/12/26 03:37:30;;;;;;;26.60;13.75;;;;;;;-2.39;100.00;98459.03;4960539;28;20027;-60
2021/12/26 03:39:56;;;;;;;21.98;10.93;;;;;;;-2.40;100.00;98460.03;4951215;28;20279;-61
2021/12/26 03:42:21;;;;;;;28.33;13.88;;;;;;;-2.31;100.00;98463.38;4946216;28;20446;-60
2021/12/26 03:44:48;;;;;;;33.92;16.23;;;;;;;-2.33;100.00;98461.94;4954302;28;20139;-59
2021/12/26 03:47:13;;;;;;;32.83;15.63;;;;;;;-2.29;100.00;98465.84;4949428;28;20134;-59
2021/12/26 03:49:39;;;;;;;33.03;15.10;;;;;;;-2.17;100.00;98472.28;4952230;28;20030;-60
2021/12/26 03:52:04;;;;;;;27.38;13.10;;;;;;;-2.10;100.00;98472.38;4955530;28;20039;-60
2021/12/26 03:54:30;;;;;;;27.48;14.88;;;;;;;-2.17;100.00;98467.84;4952043;28;20035;-60
2021/12/26 03:56:56;;;;;;;32.75;16.40;;;;;;;-2.19;100.00;98453.28;4946116;28;20073;-60
2021/12/26 03:59:21;;;;;;;28.77;14.40;;;;;;;-2.13;100.00;98452.53;4947671;28;20442;-60
2021/12/26 04:01:47;;;;;;;28.23;14.63;;;;;;;-1.97;100.00;98465.53;4955216;28;20684;-60
2021/12/26 04:04:12;;;;;;;32.20;15.57;;;;;;;-2.02;100.00;98464.41;4952339;28;20035;-60
2021/12/26 04:06:37;;;;;;;31.88;14.43;;;;;;;-2.01;100.00;98456.34;4948858;28;20478;-59
2021/12/26 04:09:03;;;;;;;31.38;13.95;;;;;;;-2.06;100.00;98461.34;4952554;28;20073;-59
2021/12/26 04:11:29;;;;;;;27.40;14.27;;;;;;;-2.15;100.00;98457.16;4950655;28;20074;-59
2021/12/26 04:13:54;;;;;;;31.08;15.15;;;;;;;-2.05;100.00;98462.16;4958401;28;20327;-59
2021/12/26 04:16:20;;;;;;;33.13;15.80;;;;;;;-2.18;100.00;98457.53;4944390;28;20043;-60
2021/12/26 04:18:45;;;;;;;34.63;16.52;;;;;;;-2.21;100.00;98455.25;4954423;28;20545;-60
2021/12/26 04:21:11;;;;;;;36.42;16.13;;;;;;;-2.09;100.00;98459.06;4955486;28;20039;-59
2021/12/26 04:23:36;;;;;;;31.33;15.35;;;;;;;-1.97;100.00;98467.34;4950313;28;20106;-59
2021/12/26 04:26:01;;;;;;;32.20;15.90;;;;;;;-1.85;100.00;98460.59;4950052;28;20565;-59
2021/12/26 04:28:27;;;;;;;35.50;15.98;;;;;;;-1.86;100.00;98452.94;4954040;28;20065;-60
2021/12/26 04:30:53;;;;;;;37.53;15.93;;;;;;;-1.85;100.00;98457.97;4950658;28;20078;-60
2021/12/26 04:33:20;;;;;;;32.30;16.25;;;;;;;-1.83;100.00;98453.38;4949658;28;20027;-60
2021/12/26 04:35:45;;;;;;;29.88;15.25;;;;;;;-1.88;100.00;98450.47;4934206;28;20045;-60
2021/12/26 04:38:10;;;;;;;28.83;14.63;;;;;;;-1.87;100.00;98446.03;4949312;28;20055;-60
2021/12/26 04:40:36;;;;;;;31.67;14.75;;;;;;;-2.00;100.00;98442.25;4950322;28;20051;-59
2021/12/26 04:43:01;;;;;;;29.98;15.00;;;;;;;-2.03;100.00;98442.59;4958447;28;20046;-59
2021/12/26 04:45:27;;;;;;;22.88;11.60;;;;;;;-2.23;100.00;98441.50;4954266;28;20110;-59
2021/12/26 04:47:52;;;;;;;28.80;14.40;;;;;;;-2.17;100.00;98443.41;4950316;28;20035;-59
2021/12/26 04:50:24;;;;;;;32.25;14.48;;;;;;;-2.26;100.00;98441.84;4951709;28;20489;-59
2021/12/26 04:52:50;;;;;;;32.55;15.50;;;;;;;-2.22;100.00;98449.19;4948398;28;20038;-60
2021/12/26 04:55:18;;;;;;;31.73;15.95;;;;;;;-2.09;100.00;98443.31;4948761;28;20039;-59
2021/12/26 04:57:44;;;;;;;42.90;18.50;;;;;;;-1.96;100.00;98454.00;4950748;28;20461;-59
2021/12/26 05:00:12;;;;;;;33.45;16.90;;;;;;;-2.08;100.00;98450.19;4951958;28;20039;-59
2021/12/26 05:02:38;;;;;;;40.70;16.73;;;;;;;-2.06;100.00;98448.22;4952861;28;20031;-59
2021/12/26 05:05:04;;;;;;;35.45;16.73;;;;;;;-2.10;100.00;98446.13;4952641;28;20039;-59
2021/12/26 05:07:30;;;;;;;36.95;15.82;;;;;;;-2.10;100.00;98449.56;4951153;28;20034;-60
2021/12/26 05:09:55;;;;;;;33.15;14.45;;;;;;;-2.13;100.00;98442.03;4959951;28;20042;-59
2021/12/26 05:12:22;;;;;;;29.80;14.15;;;;;;;-2.12;100.00;98443.69;4951300;28;20051;-59
2021/12/26 05:14:48;;;;;;;34.60;15.85;;;;;;;-2.14;100.00;98445.69;4948880;28;20478;-59
2021/12/26 05:17:13;;;;;;;33.65;15.73;;;;;;;-2.17;100.00;98446.03;4950493;28;20075;-59
2021/12/26 05:19:39;;;;;;;33.30;15.20;;;;;;;-1.93;100.00;98447.56;4949918;28;20066;-59
2021/12/26 05:22:04;;;;;;;37.90;16.17;;;;;;;-2.07;100.00;98446.59;4952767;28;20092;-60
2021/12/26 05:24:29;;;;;;;31.52;14.73;;;;;;;-2.11;100.00;98453.19;4956940;28;20363;-59
2021/12/26 05:26:55;;;;;;;35.05;16.17;;;;;;;-1.96;100.00;98454.00;4951428;28;20047;-59
2021/12/26 05:29:20;;;;;;;33.40;16.48;;;;;;;-2.12;100.00;98454.19;4952990;28;20089;-60
2021/12/26 05:31:46;;;;;;;35.78;16.65;;;;;;;-2.12;100.00;98453.34;4949079;28;20053;-59
2021/12/26 05:34:11;;;;;;;40.00;17.95;;;;;;;-2.15;100.00;98448.47;4949849;28;20077;-60
2021/12/26 05:36:37;;;;;;;45.85;18.65;;;;;;;-2.16;100.00;98442.41;4953827;28;20046;-60
2021/12/26 05:39:02;;;;;;;38.47;16.88;;;;;;;-2.06;100.00;98437.69;4950330;28;20489;-61
2021/12/26 05:41:28;;;;;;;35.28;16.08;;;;;;;-1.97;100.00;98431.38;4957043;28;20345;-59
2021/12/26 05:43:53;;;;;;;38.85;17.33;;;;;;;-1.94;100.00;98434.63;4953768;28;20594;-59
2021/12/26 05:46:19;;;;;;;36.83;16.17;;;;;;;-1.81;100.00;98434.81;4951594;28;20062;-59
2021/12/26 05:48:44;;;;;;;35.47;17.42;;;;;;;-1.89;100.00;98429.66;4949285;28;20389;-60
2021/12/26 05:51:09;;;;;;;38.42;16.75;;;;;;;-1.94;100.00;98424.94;4955766;28;20596;-60
2021/12/26 05:53:35;;;;;;;32.00;16.42;;;;;;;-1.97;100.00;98436.63;4950164;28;20034;-60
2021/12/26 05:56:00;;;;;;;39.33;16.90;;;;;;;-1.98;100.00;98429.72;4948764;28;20039;-60
2021/12/26 05:58:26;;;;;;;37.30;20.20;;;;;;;-2.06;100.00;98429.81;4949825;28;20035;-60
2021/12/26 06:00:51;;;;;;;38.97;17.15;;;;;;;-2.08;100.00;98434.44;4951742;28;20050;-60
2021/12/26 06:03:16;;;;;;;39.85;17.67;;;;;;;-2.07;100.00;98433.47;4952282;28;20031;-60
2021/12/26 06:05:42;;;;;;;40.15;17.83;;;;;;;-2.06;100.00;98435.06;4954510;28;20047;-59
2021/12/26 06:08:07;;;;;;;42.72;17.23;;;;;;;-2.06;100.00;98431.66;4947763;28;20039;-60
2021/12/26 06:10:33;;;;;;;50.25;18.08;;;;;;;-2.04;100.00;98429.66;4946855;28;20058;-59
2021/12/26 06:12:58;;;;;;;44.22;18.27;;;;;;;-1.92;100.00;98432.63;4949579;28;20450;-59
2021/12/26 06:15:23;;;;;;;38.85;18.50;;;;;;;-1.96;100.00;98432.19;4946440;28;20051;-60
2021/12/26 06:17:49;;;;;;;33.25;15.63;;;;;;;-2.02;100.00;98428.47;4949861;28;20085;-59
2021/12/26 06:20:14;;;;;;;32.03;15.50;;;;;;;-2.04;100.00;98429.66;4949977;28;20034;-59
2021/12/26 06:22:42;;;;;;;39.20;18.77;;;;;;;-1.92;100.00;98432.63;4951904;28;20039;-59
2021/12/26 06:25:09;;;;;;;35.58;17.25;;;;;;;-1.89;100.00;98427.03;4939122;28;20051;-59
2021/12/26 06:27:36;;;;;;;39.15;16.90;;;;;;;-1.81;100.00;98434.81;4942602;28;20377;-59
2021/12/26 06:30:05;;;;;;;35.13;16.45;;;;;;;-1.77;100.00;98430.81;4950529;28;20126;-60
2021/12/26 06:32:30;;;;;;;36.88;15.25;;;;;;;-1.73;100.00;98432.88;4953691;28;20046;-60
2021/12/26 06:34:56;;;;;;;32.58;15.65;;;;;;;-1.86;100.00;98440.59;4948439;28;20098;-59
2021/12/26 06:37:21;;;;;;;41.92;16.90;;;;;;;-1.93;100.00;98437.06;4943561;28;20050;-59
2021/12/26 06:39:47;;;;;;;32.08;16.67;;;;;;;-1.89;100.00;98437.53;4950037;28;20034;-59
2021/12/26 06:42:12;;;;;;;31.83;16.20;;;;;;;-2.01;100.00;98437.97;4950661;28;20039;-59
2021/12/26 06:44:38;;;;;;;32.40;15.70;;;;;;;-1.97;100.00;98428.75;4959635;28;20034;-59
2021/12/26 06:47:04;;;;;;;34.58;15.75;;;;;;;-1.89;100.00;98433.09;4949859;28;20397;-60
2021/12/26 06:49:30;;;;;;;38.05;17.55;;;;;;;-1.86;100.00;98431.91;4963130;28;20046;-59
2021/12/26 06:51:55;;;;;;;35.53;16.48;;;;;;;-1.88;100.00;98429.47;4952378;28;20058;-59
2021/12/26 06:54:21;;;;;;;40.10;16.48;;;;;;;-1.68;100.00;98432.34;4948444;28;20035;-59
2021/12/26 06:56:46;;;;;;;37.05;16.55;;;;;;;-1.83;100.00;98436.78;4954627;28;20608;-60
2021/12/26 06:59:12;;;;;;;31.27;15.07;;;;;;;-1.94;100.00;98430.19;4945145;28;20030;-60
2021/12/26 07:01:37;;;;;;;32.75;16.52;;;;;;;-1.97;100.00;98431.38;4948355;28;20168;-59
2021/12/26 07:04:03;;;;;;;33.45;16.52;;;;;;;-1.98;100.00;98428.91;4950831;28;20389;-60
2021/12/26 07:06:28;;;;;;;38.75;17.17;;;;;;;-1.93;100.00;98425.75;4950566;28;20458;-59
2021/12/26 07:08:54;;;;;;;37.78;17.10;;;;;;;-1.88;100.00;98421.56;4948259;28;20493;-59
2021/12/26 07:11:19;;;;;;;33.85;16.02;;;;;;;-1.84;100.00;98428.09;4949376;28;20039;-59
2021/12/26 07:13:44;;;;;;;37.92;16.83;;;;;;;-1.84;100.00;98436.00;4948257;28;20465;-59
2021/12/26 07:16:10;;;;;;;35.80;16.33;;;;;;;-1.76;100.00;98432.44;4950779;28;20039;-59
2021/12/26 07:18:35;;;;;;;36.08;16.80;;;;;;;-1.82;100.00;98444.50;4948197;28;20051;-59
2021/12/26 07:21:01;;;;;;;29.92;14.90;;;;;;;-1.80;100.00;98444.31;4959068;28;20047;-59
2021/12/26 07:23:26;;;;;;;36.88;15.60;;;;;;;-1.73;100.00;98451.28;4955081;28;20127;-59
2021/12/26 07:25:51;;;;;;;36.38;15.85;;;;;;;-1.61;100.00;98446.38;4949546;28;20442;-59
2021/12/26 07:28:17;;;;;;;37.92;16.77;;;;;;;-1.49;100.00;98459.06;4948503;28;20031;-60
2021/12/26 07:30:42;;;;;;;34.17;16.52;;;;;;;-1.44;100.00;98454.06;4948401;28;20043;-60
2021/12/26 07:33:08;;;;;;;33.88;17.08;;;;;;;-1.41;100.00;98456.31;4946123;28;20031;-59
2021/12/26 07:35:33;;;;;;;34.97;16.52;;;;;;;-1.33;100.00;98457.00;4959110;28;20054;-59
2021/12/26 07:37:59;;;;;;;35.00;16.02;;;;;;;-1.29;100.00;98454.84;4952112;28;20022;-59
2021/12/26 07:40:26;;;;;;;29.38;16.10;;;;;;;-1.34;100.00;98459.84;4952182;28;20450;-60
2021/12/26 07:42:52;;;;;;;30.92;16.23;;;;;;;-1.31;100.00;98457.66;4961681;28;20114;-59
2021/12/26 07:45:17;;;;;;;36.38;16.88;;;;;;;-1.35;100.00;98456.41;4961369;28;20049;-59
2021/12/26 07:47:42;;;;;;;32.83;16.30;;;;;;;-1.38;100.00;98455.94;4955979;28;20019;-59
2021/12/26 07:50:08;;;;;;;37.28;16.48;;;;;;;-1.44;100.00;98451.44;4951578;28;20034;-60
2021/12/26 07:52:38;;;;;;;28.23;14.35;;;;;;;-1.58;100.00;98456.50;4952016;28;20398;-59
2021/12/26 07:55:05;;;;;;;30.17;15.93;;;;;;;-1.54;100.00;98460.41;4952817;28;20476;-60
2021/12/26 07:57:30;;;;;;;30.88;15.10;;;;;;;-1.63;100.00;98461.50;4951563;28;20042;-60
2021/12/26 07:59:56;;;;;;;26.58;14.10;;;;;;;-1.62;100.00;98463.16;4959213;28;20034;-60
2021/12/26 08:02:21;;;;;;;30.40;16.15;;;;;;;-1.54;100.00;98463.03;4953215;28;20039;-59
2021/12/26 08:04:47;;;;;;;31.33;15.32;;;;;;;-1.45;100.00;98465.56;4953550;28;20108;-60
2021/12/26 08:07:12;;;;;;;29.60;13.80;;;;;;;-1.53;100.00;98463.84;4950795;28;20047;-59
2021/12/26 08:09:38;;;;;;;34.38;15.75;;;;;;;-1.35;100.00;98460.81;4957718;28;20551;-59
2021/12/26 08:12:04;;;;;;;32.75;17.30;;;;;;;-1.41;100.00;98456.31;4953008;28;20050;-59
2021/12/26 08:14:29;;;;;;;32.13;15.43;;;;;;;-1.51;100.00;98459.22;4948841;28;20039;-60
2021/12/26 08:16:54;;;;;;;36.28;15.68;;;;;;;-1.55;100.00;98473.72;4952193;28;20035;-59
2021/12/26 08:19:20;;;;;;;31.25;14.50;;;;;;;-1.42;100.00;98468.66;4949086;28;20046;-59
2021/12/26 08:21:45;;;;;;;34.15;15.68;;;;;;;-1.08;100.00;98473.28;4955507;28;20050;-59
2021/12/26 08:24:11;;;;;;;34.13;16.38;;;;;;;-0.83;100.00;98464.22;4957405;28;20015;-59
2021/12/26 08:26:36;;;;;;;31.58;14.77;;;;;;;-1.15;100.00;98456.63;4951776;28;20094;-59
2021/12/26 08:29:02;;;;;;;29.67;15.18;;;;;;;-1.39;100.00;98460.41;4951652;28;20175;-60
2021/12/26 08:31:28;;;;;;;33.42;16.10;;;;;;;-1.41;100.00;98464.22;4948208;28;20529;-59
2021/12/26 08:33:54;;;;;;;47.83;21.23;;;;;;;-1.29;100.00;98456.66;4953851;28;20037;-60
2021/12/26 08:36:20;;;;;;;52.80;20.90;;;;;;;-1.17;100.00;98458.63;4947226;28;20043;-59
2021/12/26 08:38:46;;;;;;;51.67;19.83;;;;;;;-1.05;100.00;98460.75;4947452;28;20594;-59
2021/12/26 08:41:12;;;;;;;52.60;23.30;;;;;;;-1.17;100.00;98470.97;4945803;28;20122;-59
2021/12/26 08:43:37;;;;;;;30.60;15.77;;;;;;;-1.27;99.84;98471.25;4955085;28;20027;-59
2021/12/26 08:46:03;;;;;;;32.80;15.52;;;;;;;-1.39;100.00;98464.84;4945829;28;20055;-59
2021/12/26 08:48:29;;;;;;;29.92;13.15;;;;;;;-1.26;100.00;98470.25;4949442;28;20117;-59
2021/12/26 08:50:55;;;;;;;35.22;16.92;;;;;;;-1.34;100.00;98473.00;4955970;28;20510;-59
2021/12/26 08:53:27;;;;;;;47.25;22.50;;;;;;;-1.32;100.00;98477.06;4948774;28;20635;-60
2021/12/26 08:55:53;;;;;;;28.23;15.57;;;;;;;-1.30;100.00;98468.97;4951124;28;20054;-60
2021/12/26 08:58:18;;;;;;;30.80;15.88;;;;;;;-1.29;100.00;98470.63;4957334;28;20051;-60
2021/12/26 09:00:44;;;;;;;35.63;16.85;;;;;;;-1.19;100.00;98471.13;4958267;28;20046;-60
2021/12/26 09:03:09;;;;;;;49.30;22.55;;;;;;;-1.03;100.00;98477.16;4955044;28;20085;-60
2021/12/26 09:05:35;;;;;;;54.72;25.27;;;;;;;-1.05;100.00;98473.91;4950488;28;20918;-60
2021/12/26 09:08:02;;;;;;;44.22;19.55;;;;;;;-0.98;100.00;98477.41;4954831;28;20267;-60
2021/12/26 09:10:27;;;;;;;34.00;16.80;;;;;;;-1.00;100.00;98484.69;4955046;28;20039;-59
2021/12/26 09:12:53;;;;;;;40.95;18.88;;;;;;;-0.96;100.00;98480.69;4954414;28;20627;-60
2021/12/26 09:15:19;;;;;;;45.75;19.65;;;;;;;-0.83;100.00;98480.00;4950694;28;20409;-59
2021/12/26 09:17:45;;;;;;;35.67;17.33;;;;;;;-0.90;99.42;98479.94;4949973;28;20053;-60
2021/12/26 09:20:10;;;;;;;43.22;18.75;;;;;;;-0.83;99.63;98475.56;4949859;28;20402;-60
2021/12/26 09:22:36;;;;;;;43.10;23.27;;;;;;;-0.91;98.90;98478.31;4950316;28;20409;-60
2021/12/26 09:25:03;;;;;;;38.13;19.17;;;;;;;-0.99;98.53;98488.97;4944189;28;20047;-59
2021/12/26 09:27:28;;;;;;;46.15;21.60;;;;;;;-0.80;100.00;98480.47;4952943;28;20026;-60
2021/12/26 09:29:54;;;;;;;40.42;17.08;;;;;;;-0.70;99.03;98486.22;4945123;28;20505;-60
2021/12/26 09:32:19;;;;;;;38.67;18.33;;;;;;;-0.76;99.33;98489.59;4954941;28;20431;-60
2021/12/26 09:34:44;;;;;;;34.03;17.45;;;;;;;-0.70;99.88;98490.66;4934821;28;20054;-60
2021/12/26 09:37:10;;;;;;;47.85;19.80;;;;;;;-0.84;99.32;98494.97;4956013;28;20670;-59
2021/12/26 09:39:36;;;;;;;43.00;19.75;;;;;;;-0.83;98.51;98482.63;4951686;28;20030;-60
2021/12/26 09:42:01;;;;;;;42.25;18.35;;;;;;;-0.77;99.21;98485.34;4945328;28;20715;-60
2021/12/26 09:44:27;;;;;;;47.08;19.95;;;;;;;-0.79;98.78;98482.06;4946767;28;20034;-59
2021/12/26 09:46:52;;;;;;;44.55;20.73;;;;;;;-0.71;99.87;98486.41;4949168;28;20444;-60
2021/12/26 09:49:18;;;;;;;48.08;21.85;;;;;;;-0.82;99.32;98479.81;4949494;28;20032;-60
2021/12/26 09:51:43;;;;;;;51.67;23.15;;;;;;;-0.72;99.62;98477.69;4950862;28;20418;-60
2021/12/26 09:54:11;;;;;;;44.05;21.33;;;;;;;-0.76;99.49;98480.88;4953282;28;20508;-60
2021/12/26 09:56:36;;;;;;;36.22;17.35;;;;;;;-0.67;100.00;98477.94;4954789;28;20050;-60
2021/12/26 09:59:06;;;;;;;61.65;29.70;;;;;;;-0.78;100.00;98477.63;4947347;28;20066;-60
2021/12/26 10:01:40;;;;;;;47.83;22.75;;;;;;;-0.86;100.00;98478.56;4954549;28;20740;-60
2021/12/26 10:04:21;;;;;;;47.17;22.58;;;;;;;-0.90;100.00;98479.94;4955176;28;20039;-60
2021/12/26 10:06:51;;;;;;;53.05;24.50;;;;;;;-0.92;100.00;98468.81;4951683;28;20161;-60
2021/12/26 10:09:18;;;;;;;47.15;22.40;;;;;;;-0.83;100.00;98464.22;4945674;28;20078;-60
2021/12/26 10:11:45;;;;;;;61.75;25.52;;;;;;;-0.81;100.00;98457.75;4955462;28;20049;-60
2021/12/26 10:14:14;;;;;;;64.32;29.05;;;;;;;-0.70;100.00;98462.53;4951985;28;20034;-60
2021/12/26 10:16:41;;;;;;;38.58;18.77;;;;;;;-0.71;100.00;98447.72;4952541;28;20129;-59
2021/12/26 10:19:09;;;;;;;34.35;17.73;;;;;;;-0.71;100.00;98453.00;4946508;28;20464;-60
2021/12/26 10:21:48;;;;;;;34.45;16.38;;;;;;;-0.80;100.00;98451.53;4944218;28;20063;-59
2021/12/26 10:24:15;;;;;;;34.55;16.33;;;;;;;-0.89;100.00;98447.38;4948522;28;20039;-58
2021/12/26 10:26:43;;;;;;;31.27;16.10;;;;;;;-0.86;100.00;98444.34;4954408;28;20046;-60
2021/12/26 10:29:30;;;;;;;32.75;16.55;;;;;;;-0.64;100.00;98439.91;4951606;28;20039;-61
2021/12/26 10:31:57;;;;;;;52.50;28.85;;;;;;;-0.60;100.00;98443.78;4952148;28;20118;-58
2021/12/26 10:34:28;;;;;;;42.75;21.15;;;;;;;-0.73;100.00;98449.72;4951984;28;20465;-58
2021/12/26 10:36:54;;;;;;;49.13;24.65;;;;;;;-0.72;100.00;98440.03;4955211;28;20150;-58
2021/12/26 10:39:28;;;;;;;42.60;22.58;;;;;;;-0.72;100.00;98435.59;4948775;28;20035;-57
2021/12/26 10:41:56;;;;;;;44.13;20.00;;;;;;;-0.64;100.00;98431.19;4945529;28;20602;-59
2021/12/26 10:44:27;;;;;;;41.58;18.98;;;;;;;-0.53;100.00;98423.56;4947724;28;20198;-58
2021/12/26 10:46:55;;;;;;;43.28;18.98;;;;;;;-0.33;100.00;98425.56;4953618;28;20047;-58
2021/12/26 10:49:29;;;;;;;37.60;18.25;;;;;;;-0.25;100.00;98428.88;4945611;28;20078;-58
2021/12/26 10:51:55;;;;;;;42.28;19.48;;;;;;;-0.26;100.00;98429.84;4955672;28;20043;-58
2021/12/26 10:54:25;;;;;;;40.97;22.70;;;;;;;-0.31;99.58;98432.25;4949677;28;20093;-58
2021/12/26 10:57:19;;;;;;;36.85;18.25;;;;;;;-0.28;99.95;98431.88;4956858;28;20501;-61
2021/12/26 10:59:46;;;;;;;31.95;15.15;;;;;;;-0.16;100.00;98428.72;4944221;28;20450;-60
2021/12/26 11:02:21;;;;;;;38.10;17.65;;;;;;;-0.32;100.00;98430.63;4949693;28;20043;-60
2021/12/26 11:04:58;;;;;;;34.72;18.55;;;;;;;-0.18;100.00;98425.44;4948308;28;20039;-58
2021/12/26 11:07:24;;;;;;;36.17;18.50;;;;;;;-0.25;100.00;98415.69;4948055;28;20123;-59
2021/12/26 11:10:07;;;;;;;35.20;16.92;;;;;;;-0.26;100.00;98416.69;4950742;28;20450;-58
2021/12/26 11:12:37;;;;;;;45.35;18.55;;;;;;;-0.27;100.00;98412.44;4951748;28;20102;-60
2021/12/26 11:15:03;;;;;;;29.25;16.48;;;;;;;-0.24;99.28;98412.06;4947963;28;20038;-58
2021/12/26 11:17:30;;;;;;;37.53;16.65;;;;;;;-0.56;98.82;98408.19;4951069;28;20027;-59